Time;durP1;ratioP1;P1;durP2;ratioP2;P2;SDS_P1;SDS_P2;PMS_P1;PMS_P2;Temp;Humidity;BMP_temperature;BMP_pressure;BME280_temperature;BME280_humidity;BME280_pressure;Samples;Min_cycle;Max_cycle;Signal;HPM_P1;HPM_P2
2022/08/10 00:00:53;;;;;;;;;;;22.30;73.20;;;;;;5053843;28;20007;-65
2022/08/10 00:03:22;;;;;;;;;;;22.30;73.10;;;;;;5053872;28;20805;-65
2022/08/10 00:05:53;;;;;;;;;;;22.30;73.20;;;;;;5054073;28;20385;-65
2022/08/10 00:08:23;;;;;;;;;;;22.20;73.30;;;;;;5053846;28;21014;-64
2022/08/10 00:10:51;;;;;;;;;;;22.20;73.10;;;;;;5053618;28;20192;-65
2022/08/10 00:13:19;;;;;;;;;;;22.20;73.50;;;;;;5053819;28;20268;-64
2022/08/10 00:15:47;;;;;;;;;;;22.20;73.40;;;;;;5053854;28;20494;-64
2022/08/10 00:18:22;;;;;;;;;;;22.20;73.20;;;;;;5053537;28;20075;-64
2022/08/10 00:21:03;;;;;;;;;;;22.10;73.30;;;;;;5053555;28;20546;-64
2022/08/10 00:23:31;;;;;;;;;;;22.10;73.60;;;;;;5053690;28;20025;-64
2022/08/10 00:25:59;;;;;;;;;;;22.10;73.80;;;;;;5053905;28;20608;-64
2022/08/10 00:28:26;;;;;;;;;;;22.00;73.90;;;;;;5053583;28;20108;-64
2022/08/10 00:30:55;;;;;;;;;;;22.00;74.00;;;;;;5052371;28;25097;-65
2022/08/10 00:33:24;;;;;;;;;;;22.00;74.00;;;;;;5053585;28;20870;-65
2022/08/10 00:35:52;;;;;;;;;;;22.00;74.20;;;;;;5053524;28;20162;-64
2022/08/10 00:38:19;;;;;;;;;;;21.90;74.20;;;;;;5053038;28;20871;-65
2022/08/10 00:40:47;;;;;;;;;;;21.90;74.50;;;;;;5053055;28;20294;-64
2022/08/10 00:43:15;;;;;;;;;;;21.90;74.50;;;;;;5053179;28;20561;-64
2022/08/10 00:45:51;;;;;;;;;;;21.90;74.40;;;;;;5053413;28;20005;-65
2022/08/10 00:48:29;;;;;;;;;;;21.80;74.60;;;;;;5053173;28;20145;-64
2022/08/10 00:50:58;;;;;;;;;;;21.80;74.70;;;;;;5035125;28;20822;-64
2022/08/10 00:53:25;;;;;;;;;;;21.70;74.60;;;;;;5053154;28;20084;-64
2022/08/10 00:55:53;;;;;;;;;;;21.70;74.90;;;;;;5053261;28;19994;-65
2022/08/10 00:58:41;;;;;;;;;;;21.70;75.00;;;;;;5053168;28;20066;-65
2022/08/10 01:01:09;;;;;;;;;;;21.70;75.20;;;;;;5052637;28;19982;-64
2022/08/10 01:03:58;;;;;;;;;;;21.70;75.10;;;;;;5052991;28;19982;-65
2022/08/10 01:06:50;;;;;;;;;;;21.60;75.30;;;;;;5052840;28;20003;-64
2022/08/10 01:09:21;;;;;;;;;;;21.60;75.40;;;;;;5052850;28;20030;-65
2022/08/10 01:11:50;;;;;;;;;;;21.50;75.60;;;;;;5052681;28;19969;-64
2022/08/10 01:14:45;;;;;;;;;;;21.50;75.60;;;;;;5052878;28;19992;-64
2022/08/10 01:17:15;;;;;;;;;;;21.50;75.60;;;;;;5052595;28;20035;-64
2022/08/10 01:19:52;;;;;;;;;;;21.50;76.00;;;;;;5052349;28;20046;-64
2022/08/10 01:22:27;;;;;;;;;;;21.40;75.80;;;;;;5052755;28;20060;-65
2022/08/10 01:25:10;;;;;;;;;;;21.40;76.10;;;;;;5052539;28;20110;-64
2022/08/10 01:27:44;;;;;;;;;;;21.40;76.20;;;;;;5050233;28;19986;-64
2022/08/10 01:30:14;;;;;;;;;;;21.30;76.40;;;;;;5051970;28;20072;-64
2022/08/10 01:32:46;;;;;;;;;;;21.30;76.50;;;;;;5052078;28;19969;-64
2022/08/10 01:35:16;;;;;;;;;;;21.30;76.70;;;;;;5052485;28;20450;-64
2022/08/10 01:37:46;;;;;;;;;;;21.20;76.60;;;;;;5052193;28;20034;-64
2022/08/10 01:40:23;;;;;;;;;;;21.20;77.00;;;;;;5051909;28;20060;-64
2022/08/10 01:42:52;;;;;;;;;;;21.20;77.20;;;;;;5052310;28;20207;-66
2022/08/10 01:45:23;;;;;;;;;;;21.10;77.20;;;;;;5052123;28;19973;-64
2022/08/10 01:50:45;;;;;;;;;;;21.00;77.50;;;;;;5051846;28;20362;-64
2022/08/10 01:53:27;;;;;;;;;;;21.10;77.60;;;;;;5052121;28;20032;-64
2022/08/10 01:56:09;;;;;;;;;;;21.00;77.60;;;;;;5052155;28;20852;-64
2022/08/10 01:58:37;;;;;;;;;;;21.00;78.00;;;;;;5051758;28;20284;-64
2022/08/10 02:01:07;;;;;;;;;;;20.90;77.70;;;;;;5051439;28;25072;-64
2022/08/10 02:03:36;;;;;;;;;;;20.90;78.00;;;;;;5051917;28;20107;-64
2022/08/10 02:06:24;;;;;;;;;;;20.90;78.00;;;;;;5052063;28;20721;-64
2022/08/10 02:08:53;;;;;;;;;;;20.90;78.10;;;;;;5051349;28;20673;-64
2022/08/10 02:11:32;;;;;;;;;;;20.90;78.40;;;;;;5051624;28;20454;-64
2022/08/10 02:14:21;;;;;;;;;;;20.90;78.20;;;;;;5051742;28;20394;-64
2022/08/10 02:16:51;;;;;;;;;;;20.80;78.60;;;;;;5051709;28;20047;-64
2022/08/10 02:19:21;;;;;;;;;;;20.80;78.60;;;;;;5051592;28;19969;-65
2022/08/10 02:21:50;;;;;;;;;;;20.80;78.80;;;;;;5051583;28;19969;-64
2022/08/10 02:24:40;;;;;;;;;;;20.70;78.90;;;;;;5051469;28;20050;-64
2022/08/10 02:27:09;;;;;;;;;;;20.70;78.90;;;;;;5051863;28;20067;-64
2022/08/10 02:29:38;;;;;;;;;;;20.70;79.40;;;;;;5051128;28;19984;-64
2022/08/10 02:32:11;;;;;;;;;;;20.70;79.20;;;;;;5051323;28;20501;-64
2022/08/10 02:34:49;;;;;;;;;;;20.70;79.30;;;;;;5051617;28;20458;-64
2022/08/10 02:37:21;;;;;;;;;;;20.70;79.40;;;;;;5051642;28;19969;-64
2022/08/10 02:39:49;;;;;;;;;;;20.70;79.60;;;;;;5051430;28;20031;-66
2022/08/10 02:42:20;;;;;;;;;;;20.60;79.80;;;;;;5051422;28;19974;-64
2022/08/10 02:45:12;;;;;;;;;;;20.50;80.10;;;;;;5051526;28;20065;-65
2022/08/10 02:47:59;;;;;;;;;;;20.50;80.10;;;;;;5051855;28;20444;-64
2022/08/10 02:50:28;;;;;;;;;;;20.50;80.30;;;;;;5051387;28;20452;-64
2022/08/10 02:52:59;;;;;;;;;;;20.50;80.40;;;;;;5051250;28;20596;-64
2022/08/10 02:55:31;;;;;;;;;;;20.40;80.40;;;;;;5051495;28;19973;-64
2022/08/10 02:58:02;;;;;;;;;;;20.50;80.50;;;;;;5051460;28;19972;-64
2022/08/10 03:00:46;;;;;;;;;;;20.40;80.60;;;;;;5051068;28;19971;-64
2022/08/10 03:03:19;;;;;;;;;;;20.40;80.90;;;;;;5051192;28;20486;-64
2022/08/10 03:05:48;;;;;;;;;;;20.40;80.90;;;;;;5051261;28;20589;-64
2022/08/10 03:08:18;;;;;;;;;;;20.30;81.10;;;;;;5051243;28;20012;-64
2022/08/10 03:10:46;;;;;;;;;;;20.30;81.40;;;;;;5051019;28;20472;-65
2022/08/10 03:13:14;;;;;;;;;;;20.30;81.60;;;;;;5050995;28;19969;-64
2022/08/10 03:15:43;;;;;;;;;;;20.20;81.70;;;;;;5051283;28;20004;-64
2022/08/10 03:18:11;;;;;;;;;;;20.20;81.60;;;;;;5051247;28;19969;-64
2022/08/10 03:20:42;;;;;;;;;;;20.20;82.00;;;;;;5051528;28;20026;-64
2022/08/10 03:23:12;;;;;;;;;;;20.20;82.20;;;;;;5055020;28;19977;-64
2022/08/10 03:25:40;;;;;;;;;;;20.10;82.40;;;;;;5055029;28;20032;-64
2022/08/10 03:28:21;;;;;;;;;;;20.10;82.80;;;;;;5054862;28;20046;-64
2022/08/10 03:30:49;;;;;;;;;;;20.10;82.80;;;;;;5059779;22;19978;-64
2022/08/10 03:33:17;;;;;;;;;;;20.10;83.00;;;;;;5016609;28;19966;-65
2022/08/10 03:35:46;;;;;;;;;;;20.00;82.90;;;;;;5016762;28;20004;-64
2022/08/10 03:38:34;;;;;;;;;;;20.00;83.30;;;;;;5017065;28;20038;-64
2022/08/10 03:41:03;;;;;;;;;;;20.00;83.30;;;;;;5016684;28;20426;-64
2022/08/10 03:43:32;;;;;;;;;;;19.90;83.50;;;;;;5016624;28;20446;-64
2022/08/10 03:46:02;;;;;;;;;;;20.00;83.80;;;;;;5016931;28;20009;-64
2022/08/10 03:48:31;;;;;;;;;;;19.90;83.70;;;;;;5016904;28;20005;-64
2022/08/10 03:51:18;;;;;;;;;;;19.90;84.10;;;;;;5016392;28;20005;-64
2022/08/10 03:53:46;;;;;;;;;;;19.90;84.20;;;;;;5016731;28;21015;-64
2022/08/10 03:56:34;;;;;;;;;;;19.90;84.30;;;;;;5015798;28;20110;-64
2022/08/10 03:59:02;;;;;;;;;;;19.90;84.50;;;;;;5016673;28;20032;-64
2022/08/10 04:01:30;;;;;;;;;;;19.90;84.50;;;;;;5016537;28;19973;-64
2022/08/10 04:04:18;;;;;;;;;;;19.90;84.40;;;;;;5016362;28;20097;-64
2022/08/10 04:06:53;;;;;;;;;;;19.90;84.40;;;;;;5016711;28;19981;-64
2022/08/10 04:09:22;;;;;;;;;;;20.00;84.50;;;;;;5016384;28;20478;-64
2022/08/10 04:11:50;;;;;;;;;;;19.90;84.70;;;;;;5016313;28;20094;-64
2022/08/10 04:14:18;;;;;;;;;;;19.90;84.70;;;;;;5016618;28;20109;-64
2022/08/10 04:17:06;;;;;;;;;;;19.90;85.00;;;;;;5016731;28;20108;-64
2022/08/10 04:19:42;;;;;;;;;;;19.90;85.20;;;;;;5015890;28;20022;-64
2022/08/10 04:22:14;;;;;;;;;;;19.80;85.40;;;;;;5016303;28;20014;-64
2022/08/10 04:24:43;;;;;;;;;;;19.80;85.40;;;;;;5015679;28;20004;-64
2022/08/10 04:27:11;;;;;;;;;;;19.80;85.40;;;;;;5016371;28;19972;-64
2022/08/10 04:29:39;;;;;;;;;;;19.80;85.50;;;;;;5015966;28;20429;-64
2022/08/10 04:32:08;;;;;;;;;;;19.80;85.80;;;;;;5035339;28;19991;-64
2022/08/10 04:34:37;;;;;;;;;;;19.80;86.10;;;;;;5035717;28;19979;-64
2022/08/10 04:37:06;;;;;;;;;;;19.80;86.40;;;;;;5035603;28;20572;-64
2022/08/10 04:39:37;;;;;;;;;;;19.80;86.60;;;;;;5035921;28;20085;-64
2022/08/10 04:42:05;;;;;;;;;;;19.80;86.40;;;;;;5035455;28;19993;-64
2022/08/10 04:44:33;;;;;;;;;;;19.80;86.90;;;;;;5035184;28;19997;-64
2022/08/10 04:47:01;;;;;;;;;;;19.80;87.00;;;;;;5035603;28;19981;-64
2022/08/10 04:49:30;;;;;;;;;;;19.80;87.10;;;;;;5035302;28;19977;-64
2022/08/10 04:52:17;;;;;;;;;;;19.90;87.10;;;;;;5035743;28;20448;-64
2022/08/10 04:54:46;;;;;;;;;;;19.90;87.50;;;;;;5035211;28;20477;-64
2022/08/10 04:57:14;;;;;;;;;;;20.00;87.60;;;;;;5035185;28;20000;-64
2022/08/10 04:59:42;;;;;;;;;;;20.00;87.90;;;;;;5035277;28;20474;-64
2022/08/10 05:02:10;;;;;;;;;;;20.00;87.80;;;;;;5035118;28;21216;-65
2022/08/10 05:04:58;;;;;;;;;;;20.00;88.00;;;;;;5034974;28;20134;-65
2022/08/10 05:07:25;;;;;;;;;;;20.10;88.10;;;;;;5034972;28;20835;-64
2022/08/10 05:09:55;;;;;;;;;;;20.10;88.30;;;;;;5034657;28;20681;-64
2022/08/10 05:12:33;;;;;;;;;;;20.20;88.20;;;;;;5034871;28;20030;-64
2022/08/10 05:15:04;;;;;;;;;;;20.20;88.50;;;;;;5034807;28;20374;-64
2022/08/10 05:17:33;;;;;;;;;;;20.30;88.60;;;;;;5034292;28;20404;-64
2022/08/10 05:20:01;;;;;;;;;;;20.40;89.30;;;;;;5033986;28;20228;-64
2022/08/10 05:22:34;;;;;;;;;;;20.40;88.60;;;;;;5034189;28;25074;-64
2022/08/10 05:25:05;;;;;;;;;;;20.50;88.10;;;;;;5033766;28;20302;-64
2022/08/10 05:27:33;;;;;;;;;;;20.60;88.00;;;;;;5034090;28;20078;-64
2022/08/10 05:30:01;;;;;;;;;;;20.70;87.80;;;;;;5033370;28;20891;-65
2022/08/10 05:32:31;;;;;;;;;;;20.80;87.90;;;;;;5033740;28;20173;-64
2022/08/10 05:34:58;;;;;;;;;;;20.90;87.70;;;;;;5033811;28;20605;-65
2022/08/10 05:37:28;;;;;;;;;;;20.90;86.70;;;;;;5034030;28;20924;-64
2022/08/10 05:40:17;;;;;;;;;;;21.10;87.10;;;;;;5033491;28;20399;-64
2022/08/10 05:42:45;;;;;;;;;;;21.20;86.80;;;;;;5033504;28;20454;-64
2022/08/10 05:45:17;;;;;;;;;;;21.30;85.70;;;;;;5033400;28;20120;-64
2022/08/10 05:47:45;;;;;;;;;;;21.40;85.40;;;;;;5034104;28;20123;-64
2022/08/10 05:50:33;;;;;;;;;;;21.50;86.10;;;;;;5033315;28;20534;-64
2022/08/10 05:53:01;;;;;;;;;;;21.60;85.00;;;;;;5033358;28;20099;-65
2022/08/10 05:55:50;;;;;;;;;;;21.70;84.70;;;;;;5033623;28;20042;-64
2022/08/10 05:58:18;;;;;;;;;;;21.90;83.60;;;;;;5033203;28;20176;-65
2022/08/10 06:00:46;;;;;;;;;;;22.00;84.00;;;;;;5032707;28;20588;-64
2022/08/10 06:03:18;;;;;;;;;;;22.00;83.10;;;;;;5032753;28;21210;-65
2022/08/10 06:05:53;;;;;;;;;;;22.10;83.30;;;;;;5033124;28;25072;-65
2022/08/10 06:08:22;;;;;;;;;;;22.20;83.60;;;;;;5033224;28;20803;-65
2022/08/10 06:10:55;;;;;;;;;;;22.40;82.80;;;;;;5032785;28;20240;-64
2022/08/10 06:16:43;;;;;;;;;;;22.50;81.60;;;;;;5032678;28;20010;-64
2022/08/10 06:19:12;;;;;;;;;;;22.60;81.80;;;;;;5032855;28;20026;-64
2022/08/10 06:21:42;;;;;;;;;;;22.70;81.10;;;;;;5032927;28;19996;-64
2022/08/10 06:24:29;;;;;;;;;;;22.70;81.30;;;;;;5033183;28;20067;-64
2022/08/10 06:26:59;;;;;;;;;;;22.80;81.70;;;;;;5032961;28;19974;-64
2022/08/10 06:29:29;;;;;;;;;;;22.90;81.00;;;;;;5032661;28;20025;-64
2022/08/10 06:31:57;;;;;;;;;;;23.00;80.60;;;;;;5031336;28;20022;-64
2022/08/10 06:34:29;;;;;;;;;;;23.00;80.40;;;;;;5032017;28;21508;-64
2022/08/10 06:36:57;;;;;;;;;;;23.20;80.60;;;;;;5032152;28;20045;-64
2022/08/10 06:39:26;;;;;;;;;;;23.30;80.20;;;;;;5032249;28;20848;-64
2022/08/10 06:42:08;;;;;;;;;;;23.40;80.20;;;;;;5032230;28;20678;-64
2022/08/10 06:44:47;;;;;;;;;;;23.50;80.50;;;;;;5032845;28;20223;-64
2022/08/10 06:47:16;;;;;;;;;;;23.60;79.50;;;;;;5032698;28;20317;-64
2022/08/10 06:49:51;;;;;;;;;;;23.60;79.20;;;;;;5032153;28;20876;-65
2022/08/10 06:52:20;;;;;;;;;;;23.60;79.20;;;;;;5032326;28;20965;-65
2022/08/10 06:54:48;;;;;;;;;;;23.60;79.00;;;;;;5033272;28;21462;-65
2022/08/10 06:57:19;;;;;;;;;;;23.60;79.10;;;;;;5036309;28;21069;-65
2022/08/10 06:59:47;;;;;;;;;;;23.70;79.60;;;;;;5035664;28;20713;-64
2022/08/10 07:02:19;;;;;;;;;;;23.90;78.70;;;;;;5035940;28;20764;-64
2022/08/10 07:04:50;;;;;;;;;;;24.00;78.60;;;;;;5035885;28;20043;-65
2022/08/10 07:07:19;;;;;;;;;;;24.10;78.70;;;;;;5036153;28;20311;-65
2022/08/10 07:09:47;;;;;;;;;;;24.20;78.40;;;;;;5035452;28;20945;-64
2022/08/10 07:12:17;;;;;;;;;;;24.30;77.60;;;;;;5035669;28;20398;-65
2022/08/10 07:14:46;;;;;;;;;;;24.30;78.30;;;;;;5035291;28;21353;-65
2022/08/10 07:17:16;;;;;;;;;;;24.40;76.70;;;;;;5035725;28;21219;-65
2022/08/10 07:19:45;;;;;;;;;;;24.30;77.50;;;;;;5035343;28;20699;-64
2022/08/10 07:22:19;;;;;;;;;;;24.40;77.60;;;;;;5035539;28;20862;-65
2022/08/10 07:25:08;;;;;;;;;;;24.40;76.80;;;;;;5035802;28;20699;-65
2022/08/10 07:27:38;;;;;;;;;;;24.40;77.30;;;;;;5035390;28;20699;-65
2022/08/10 07:30:27;;;;;;;;;;;24.50;77.70;;;;;;5034855;28;20033;-65
2022/08/10 07:32:55;;;;;;;;;;;24.70;77.40;;;;;;5034974;28;20065;-65
2022/08/10 07:35:24;;;;;;;;;;;24.70;76.20;;;;;;5036088;28;20397;-64
2022/08/10 07:37:52;;;;;;;;;;;24.70;75.80;;;;;;5035412;28;20035;-65
2022/08/10 07:40:21;;;;;;;;;;;24.80;76.60;;;;;;5035000;28;20717;-65
2022/08/10 07:42:50;;;;;;;;;;;25.00;76.10;;;;;;5034706;28;20788;-65
2022/08/10 07:45:18;;;;;;;;;;;25.20;78.00;;;;;;5034980;28;20860;-65
2022/08/10 07:47:51;;;;;;;;;;;25.30;75.30;;;;;;5035224;28;20816;-65
2022/08/10 07:50:23;;;;;;;;;;;25.30;75.00;;;;;;5034616;28;20246;-65
2022/08/10 07:52:51;;;;;;;;;;;25.40;75.40;;;;;;5035070;28;20169;-65
2022/08/10 07:55:20;;;;;;;;;;;25.40;74.80;;;;;;5035015;28;19985;-65
2022/08/10 07:58:09;;;;;;;;;;;25.50;75.50;;;;;;5034869;28;20073;-65
2022/08/10 08:00:37;;;;;;;;;;;25.50;74.70;;;;;;5033877;28;20276;-65
2022/08/10 08:03:08;;;;;;;;;;;25.60;76.60;;;;;;5034281;28;25170;-65
2022/08/10 08:05:36;;;;;;;;;;;25.80;75.60;;;;;;5034454;28;20579;-65
2022/08/10 08:08:24;;;;;;;;;;;25.90;74.60;;;;;;5034132;28;21096;-65
2022/08/10 08:10:56;;;;;;;;;;;26.10;75.50;;;;;;5034120;28;20393;-65
2022/08/10 08:13:24;;;;;;;;;;;26.30;74.40;;;;;;5034524;28;20304;-65
2022/08/10 08:15:53;;;;;;;;;;;26.20;74.70;;;;;;5034325;28;20774;-66
2022/08/10 08:18:43;;;;;;;;;;;26.50;75.10;;;;;;5034231;28;20645;-65
2022/08/10 08:21:31;;;;;;;;;;;26.70;74.60;;;;;;5033646;28;20741;-65
2022/08/10 08:24:19;;;;;;;;;;;26.90;73.60;;;;;;5034002;28;20651;-65
2022/08/10 08:27:01;;;;;;;;;;;27.00;73.70;;;;;;5033869;28;20135;-65
2022/08/10 08:29:29;;;;;;;;;;;27.20;73.20;;;;;;5034077;28;20096;-65
2022/08/10 08:31:57;;;;;;;;;;;27.30;73.10;;;;;;5033018;28;20983;-65
2022/08/10 08:34:31;;;;;;;;;;;27.30;73.10;;;;;;5033911;28;20917;-65
2022/08/10 08:37:00;;;;;;;;;;;27.60;73.10;;;;;;5033437;28;25077;-64
2022/08/10 08:39:27;;;;;;;;;;;27.80;72.70;;;;;;5033548;28;20097;-65
2022/08/10 08:42:14;;;;;;;;;;;28.10;72.10;;;;;;5033564;28;20103;-65
2022/08/10 08:44:50;;;;;;;;;;;27.80;71.10;;;;;;5033858;28;20671;-65
2022/08/10 08:47:25;;;;;;;;;;;27.90;72.20;;;;;;5033600;28;20850;-65
2022/08/10 08:50:24;;;;;;;;;;;28.10;71.70;;;;;;5033304;28;20141;-65
2022/08/10 08:52:58;;;;;;;;;;;28.10;71.90;;;;;;5033887;28;25076;-65
2022/08/10 08:55:31;;;;;;;;;;;28.30;71.10;;;;;;5033680;28;20117;-65
2022/08/10 08:58:30;;;;;;;;;;;28.50;72.10;;;;;;5033613;28;20621;-65
2022/08/10 09:01:03;;;;;;;;;;;28.60;71.40;;;;;;5033069;28;20740;-65
2022/08/10 09:03:39;;;;;;;;;;;28.60;70.80;;;;;;5033460;28;20580;-65
2022/08/10 09:06:15;;;;;;;;;;;28.60;71.30;;;;;;5033328;28;20097;-65
2022/08/10 09:08:51;;;;;;;;;;;28.90;71.80;;;;;;5015759;28;20151;-65
2022/08/10 09:11:28;;;;;;;;;;;29.20;71.80;;;;;;5032835;28;20243;-65
2022/08/10 09:14:01;;;;;;;;;;;29.20;71.00;;;;;;5033313;28;20216;-65
2022/08/10 09:16:34;;;;;;;;;;;29.40;70.90;;;;;;5033331;28;20802;-65
2022/08/10 09:19:05;;;;;;;;;;;29.60;69.50;;;;;;5032945;28;20665;-67
2022/08/10 09:21:38;;;;;;;;;;;29.50;70.10;;;;;;5032782;28;20233;-65
2022/08/10 09:24:27;;;;;;;;;;;29.60;68.90;;;;;;5033061;28;20664;-65
2022/08/10 09:26:58;;;;;;;;;;;29.80;69.60;;;;;;5032954;28;20234;-65
2022/08/10 09:29:26;;;;;;;;;;;29.90;69.30;;;;;;5033012;28;21074;-66
2022/08/10 09:31:59;;;;;;;;;;;30.20;69.00;;;;;;5054029;22;20829;-65
2022/08/10 09:34:55;;;;;;;;;;;30.30;68.00;;;;;;5025452;28;21200;-65
2022/08/10 09:37:47;;;;;;;;;;;30.20;68.70;;;;;;5032577;28;20773;-65
2022/08/10 09:40:32;;;;;;;;;;;30.00;67.80;;;;;;5032134;28;20704;-64
2022/08/10 09:43:24;;;;;;;;;;;30.10;68.30;;;;;;5032584;28;20743;-65
2022/08/10 09:45:58;;;;;;;;;;;30.30;68.60;;;;;;5032190;28;20712;-65
2022/08/10 09:48:30;;;;;;;;;;;30.50;67.30;;;;;;5032285;28;20360;-65
2022/08/10 09:51:02;;;;;;;;;;;30.60;67.50;;;;;;5031992;28;20204;-65
2022/08/10 09:53:55;;;;;;;;;;;30.90;67.20;;;;;;5032163;28;20194;-65
2022/08/10 09:56:26;;;;;;;;;;;30.90;66.70;;;;;;5032080;28;20599;-65
2022/08/10 09:59:02;;;;;;;;;;;30.70;66.10;;;;;;5032099;28;20202;-65
2022/08/10 10:01:53;;;;;;;;;;;30.80;65.40;;;;;;5031895;28;20754;-65
2022/08/10 10:04:38;;;;;;;;;;;31.10;65.60;;;;;;5031961;28;20133;-65
2022/08/10 10:07:07;;;;;;;;;;;31.30;66.00;;;;;;5032184;28;20217;-63
2022/08/10 10:09:42;;;;;;;;;;;31.30;64.90;;;;;;5031886;28;20263;-64
2022/08/10 10:12:15;;;;;;;;;;;31.20;64.60;;;;;;5031809;28;20206;-64
2022/08/10 10:17:42;;;;;;;;;;;31.20;63.40;;;;;;5032063;28;20209;-65
2022/08/10 10:20:14;;;;;;;;;;;31.40;64.10;;;;;;5031683;28;20227;-65
2022/08/10 10:22:52;;;;;;;;;;;31.70;64.20;;;;;;5031893;28;20090;-66
2022/08/10 10:25:27;;;;;;;;;;;32.10;65.50;;;;;;5031605;28;20277;-64
2022/08/10 10:28:22;;;;;;;;;;;32.10;62.00;;;;;;5032004;28;20254;-65
2022/08/10 10:30:54;;;;;;;;;;;32.20;61.90;;;;;;5036160;28;20215;-65
2022/08/10 10:33:30;;;;;;;;;;;32.10;61.70;;;;;;5051752;28;20279;-65
2022/08/10 10:36:00;;;;;;;;;;;32.00;62.60;;;;;;5051526;28;20213;-65
2022/08/10 10:38:32;;;;;;;;;;;31.90;62.50;;;;;;5051744;28;20176;-65
2022/08/10 10:41:08;;;;;;;;;;;31.90;62.20;;;;;;5051233;28;20202;-65
2022/08/10 10:43:40;;;;;;;;;;;31.90;63.10;;;;;;5051588;28;20177;-65
2022/08/10 10:46:12;;;;;;;;;;;32.20;63.00;;;;;;5051237;28;20205;-65
2022/08/10 10:48:47;;;;;;;;;;;32.40;62.30;;;;;;5051626;28;20649;-65
2022/08/10 10:51:18;;;;;;;;;;;32.10;61.40;;;;;;5051180;28;20212;-65
2022/08/10 10:53:49;;;;;;;;;;;32.10;62.50;;;;;;5051474;28;20229;-64
2022/08/10 10:56:24;;;;;;;;;;;31.90;62.20;;;;;;5051061;28;20760;-65
2022/08/10 10:59:03;;;;;;;;;;;32.10;62.80;;;;;;5051556;28;20181;-65
2022/08/10 11:01:56;;;;;;;;;;;32.00;62.60;;;;;;5051061;28;20258;-65
2022/08/10 11:04:27;;;;;;;;;;;32.10;63.60;;;;;;5051498;28;20206;-65
2022/08/10 11:07:01;;;;;;;;;;;32.20;63.00;;;;;;5051325;28;20209;-65
2022/08/10 11:09:34;;;;;;;;;;;32.60;63.30;;;;;;5051264;28;20177;-64
2022/08/10 11:12:25;;;;;;;;;;;32.70;62.20;;;;;;5051298;28;20292;-65
2022/08/10 11:14:58;;;;;;;;;;;33.10;60.70;;;;;;5051287;28;20211;-65
2022/08/10 11:17:29;;;;;;;;;;;33.10;61.50;;;;;;5051181;28;20185;-65
2022/08/10 11:20:03;;;;;;;;;;;32.90;60.90;;;;;;5051049;28;20222;-65
2022/08/10 11:22:33;;;;;;;;;;;33.50;60.90;;;;;;5051045;28;25169;-65
2022/08/10 11:25:08;;;;;;;;;;;33.50;60.90;;;;;;5051146;28;20058;-65
2022/08/10 11:27:41;;;;;;;;;;;33.30;60.80;;;;;;5050991;28;20163;-65
2022/08/10 11:30:11;;;;;;;;;;;33.20;61.20;;;;;;5050691;28;20236;-65
2022/08/10 11:32:46;;;;;;;;;;;32.60;59.60;;;;;;5050784;28;20206;-66
2022/08/10 11:35:25;;;;;;;;;;;32.40;60.20;;;;;;5051449;28;20313;-64
2022/08/10 11:38:01;;;;;;;;;;;31.90;59.40;;;;;;5051250;28;20185;-64
2022/08/10 11:40:52;;;;;;;;;;;31.40;60.70;;;;;;5051034;28;20202;-64
2022/08/10 11:43:25;;;;;;;;;;;31.50;61.40;;;;;;5054055;28;20092;-65
2022/08/10 11:45:56;;;;;;;;;;;32.20;60.10;;;;;;5054205;28;20600;-65
2022/08/10 11:48:37;;;;;;;;;;;32.60;58.80;;;;;;5054508;28;20257;-65
2022/08/10 11:51:25;;;;;;;;;;;32.60;57.30;;;;;;5054106;28;20217;-65
2022/08/10 11:53:56;;;;;;;;;;;32.50;57.50;;;;;;5054770;28;20186;-65
2022/08/10 11:56:27;;;;;;;;;;;32.60;57.90;;;;;;5054397;28;20478;-65
2022/08/10 12:01:45;;;;;;;;;;;33.90;57.30;;;;;;5053954;28;20255;-65
2022/08/10 12:04:14;;;;;;;;;;;33.50;56.50;;;;;;5054075;28;20166;-65
2022/08/10 12:06:42;;;;;;;;;;;33.30;56.90;;;;;;5053807;28;20271;-65
2022/08/10 12:09:23;;;;;;;;;;;33.40;57.20;;;;;;5054347;28;20252;-65
2022/08/10 12:12:11;;;;;;;;;;;33.40;57.40;;;;;;5053958;28;20185;-65
2022/08/10 12:14:46;;;;;;;;;;;33.80;57.20;;;;;;5054075;28;20687;-64
2022/08/10 12:17:16;;;;;;;;;;;33.70;56.70;;;;;;5053687;28;20351;-65
2022/08/10 12:19:49;;;;;;;;;;;33.60;56.90;;;;;;5054165;28;20185;-65
2022/08/10 12:22:32;;;;;;;;;;;33.60;56.40;;;;;;5054088;28;20643;-65
2022/08/10 12:25:01;;;;;;;;;;;33.50;56.50;;;;;;5053827;28;20166;-65
2022/08/10 12:27:31;;;;;;;;;;;33.70;56.60;;;;;;5053476;28;20686;-65
2022/08/10 12:30:03;;;;;;;;;;;33.70;56.80;;;;;;5053501;28;20191;-65
2022/08/10 12:32:35;;;;;;;;;;;33.80;56.70;;;;;;5053531;28;20223;-65
2022/08/10 12:35:06;;;;;;;;;;;34.40;57.00;;;;;;5053496;28;20662;-65
2022/08/10 12:37:38;;;;;;;;;;;34.40;56.00;;;;;;5053568;28;20572;-65
2022/08/10 12:40:09;;;;;;;;;;;34.30;56.50;;;;;;5053407;28;20169;-65
2022/08/10 12:43:01;;;;;;;;;;;34.70;56.10;;;;;;5053616;28;20204;-65
2022/08/10 12:45:56;;;;;;;;;;;35.10;55.80;;;;;;5053310;28;20184;-66
2022/08/10 12:48:26;;;;;;;;;;;35.10;54.70;;;;;;5053642;28;20187;-65
2022/08/10 12:50:59;;;;;;;;;;;34.80;54.40;;;;;;5053123;28;20210;-65
2022/08/10 12:53:35;;;;;;;;;;;34.30;55.10;;;;;;5052978;28;20676;-65
2022/08/10 12:56:03;;;;;;;;;;;33.80;55.40;;;;;;5053018;28;20168;-65
2022/08/10 12:58:32;;;;;;;;;;;33.80;55.20;;;;;;5052987;28;20169;-66
2022/08/10 13:01:22;;;;;;;;;;;34.20;56.80;;;;;;5052792;28;20185;-65
2022/08/10 13:03:52;;;;;;;;;;;34.20;54.50;;;;;;5052891;28;25070;-65
2022/08/10 13:06:44;;;;;;;;;;;34.70;55.20;;;;;;5052673;28;20745;-65
2022/08/10 13:09:13;;;;;;;;;;;35.20;54.90;;;;;;5053277;28;20175;-65
2022/08/10 13:11:43;;;;;;;;;;;35.20;53.90;;;;;;5052648;28;20210;-65
2022/08/10 13:14:35;;;;;;;;;;;35.50;53.80;;;;;;5052757;28;20176;-65
2022/08/10 13:17:06;;;;;;;;;;;36.40;54.00;;;;;;5052824;28;20247;-65
2022/08/10 13:19:36;;;;;;;;;;;36.20;53.70;;;;;;5052506;28;25085;-66
2022/08/10 13:22:23;;;;;;;;;;;36.00;53.70;;;;;;5052699;28;20699;-65
2022/08/10 13:24:52;;;;;;;;;;;35.50;53.90;;;;;;5052925;28;20214;-65
2022/08/10 13:27:25;;;;;;;;;;;35.40;53.90;;;;;;5052448;28;20610;-65
2022/08/10 13:30:14;;;;;;;;;;;35.00;53.50;;;;;;5052067;28;20193;-66
2022/08/10 13:32:47;;;;;;;;;;;34.60;54.10;;;;;;5052031;28;20635;-65
2022/08/10 13:35:17;;;;;;;;;;;34.40;54.70;;;;;;5052619;28;20182;-66
2022/08/10 13:37:46;;;;;;;;;;;34.10;54.20;;;;;;5052114;28;20161;-65
2022/08/10 13:40:16;;;;;;;;;;;34.20;54.60;;;;;;5052167;28;20184;-65
2022/08/10 13:42:44;;;;;;;;;;;34.20;54.70;;;;;;5052317;28;20682;-65
2022/08/10 13:45:13;;;;;;;;;;;34.20;55.10;;;;;;5052245;28;20185;-65
2022/08/10 13:47:43;;;;;;;;;;;34.70;54.30;;;;;;5052050;28;20200;-65
2022/08/10 13:50:21;;;;;;;;;;;35.60;54.10;;;;;;5052261;28;20190;-65
2022/08/10 13:53:02;;;;;;;;;;;36.30;54.70;;;;;;5052312;28;20187;-65
2022/08/10 13:55:30;;;;;;;;;;;36.10;54.50;;;;;;5052181;28;20174;-65
2022/08/10 13:58:22;;;;;;;;;;;35.90;54.30;;;;;;5052198;28;20177;-65
2022/08/10 14:00:49;;;;;;;;;;;35.70;53.20;;;;;;5051909;28;21154;-65
2022/08/10 14:03:19;;;;;;;;;;;35.80;53.60;;;;;;5051899;28;20827;-65
2022/08/10 14:05:50;;;;;;;;;;;35.50;53.10;;;;;;5051156;28;20213;-65
2022/08/10 14:08:19;;;;;;;;;;;35.30;52.90;;;;;;5051730;28;20323;-65
2022/08/10 14:10:47;;;;;;;;;;;35.10;53.60;;;;;;5051461;28;25087;-65
2022/08/10 14:13:36;;;;;;;;;;;35.30;53.10;;;;;;5051878;28;20164;-65
2022/08/10 14:16:05;;;;;;;;;;;34.80;54.00;;;;;;5051677;28;20176;-65
2022/08/10 14:18:35;;;;;;;;;;;34.00;54.10;;;;;;5051460;28;20156;-65
2022/08/10 14:21:03;;;;;;;;;;;34.30;54.80;;;;;;5051520;28;20233;-65
2022/08/10 14:23:38;;;;;;;;;;;34.70;54.50;;;;;;5051518;28;25099;-65
2022/08/10 14:26:07;;;;;;;;;;;35.00;54.50;;;;;;5051673;28;20172;-65
2022/08/10 14:28:38;;;;;;;;;;;35.50;54.30;;;;;;5051377;28;25133;-66
2022/08/10 14:31:08;;;;;;;;;;;35.70;53.10;;;;;;5050820;28;20738;-65
2022/08/10 14:33:38;;;;;;;;;;;35.30;52.70;;;;;;5051649;28;20206;-65
2022/08/10 14:36:08;;;;;;;;;;;35.30;52.30;;;;;;5051780;28;20198;-65
2022/08/10 14:38:52;;;;;;;;;;;35.10;52.70;;;;;;5051640;28;20218;-65
2022/08/10 14:41:23;;;;;;;;;;;35.50;53.40;;;;;;5051251;28;20264;-65
2022/08/10 14:44:12;;;;;;;;;;;36.00;52.90;;;;;;5051676;28;20239;-65
2022/08/10 14:46:42;;;;;;;;;;;36.40;53.10;;;;;;5051694;28;25124;-65
2022/08/10 14:49:13;;;;;;;;;;;36.30;52.70;;;;;;5051577;28;20455;-65
2022/08/10 14:51:57;;;;;;;;;;;36.00;52.80;;;;;;5051143;28;20687;-65
2022/08/10 14:54:26;;;;;;;;;;;35.90;53.00;;;;;;5051387;28;20831;-65
2022/08/10 14:57:01;;;;;;;;;;;36.50;53.00;;;;;;5051433;28;20193;-65
2022/08/10 14:59:39;;;;;;;;;;;37.10;52.90;;;;;;5051192;28;20628;-65
2022/08/10 15:02:28;;;;;;;;;;;36.70;52.30;;;;;;5051543;28;20219;-65
2022/08/10 15:05:08;;;;;;;;;;;36.40;52.30;;;;;;5051529;28;20196;-65
2022/08/10 15:07:36;;;;;;;;;;;36.60;52.60;;;;;;5051221;28;20200;-65